sensor_id;sensor_type;location;lat;lon;timestamp;P1;durP1;ratioP1;P2;durP2;ratioP2
63900;SDS011;50538;53.482;10.294;2023-02-28T00:05:22;1.10;;;0.77;;
63900;SDS011;50538;53.482;10.294;2023-02-28T00:15:24;1.65;;;0.65;;
63900;SDS011;50538;53.482;10.294;2023-02-28T00:25:25;1.03;;;0.67;;
63900;SDS011;50538;53.482;10.294;2023-02-28T00:35:27;4.55;;;0.75;;
63900;SDS011;50538;53.482;10.294;2023-02-28T00:45:27;1.25;;;0.60;;
63900;SDS011;50538;53.482;10.294;2023-02-28T00:55:28;1.75;;;0.60;;
63900;SDS011;50538;53.482;10.294;2023-02-28T01:05:28;0.90;;;0.57;;
63900;SDS011;50538;53.482;10.294;2023-02-28T01:15:28;0.63;;;0.60;;
63900;SDS011;50538;53.482;10.294;2023-02-28T01:25:29;0.45;;;0.38;;
63900;SDS011;50538;53.482;10.294;2023-02-28T01:35:31;1.33;;;0.85;;
63900;SDS011;50538;53.482;10.294;2023-02-28T01:45:33;0.77;;;0.63;;
63900;SDS011;50538;53.482;10.294;2023-02-28T01:55:35;0.50;;;0.47;;
63900;SDS011;50538;53.482;10.294;2023-02-28T02:05:37;2.17;;;0.50;;
63900;SDS011;50538;53.482;10.294;2023-02-28T02:26:15;0.93;;;0.43;;
63900;SDS011;50538;53.482;10.294;2023-02-28T02:36:30;0.27;;;0.20;;
63900;SDS011;50538;53.482;10.294;2023-02-28T02:46:38;2.50;;;0.65;;
63900;SDS011;50538;53.482;10.294;2023-02-28T02:56:44;0.30;;;0.15;;
63900;SDS011;50538;53.482;10.294;2023-02-28T03:06:48;0.63;;;0.25;;
63900;SDS011;50538;53.482;10.294;2023-02-28T03:27:08;1.10;;;0.30;;
63900;SDS011;50538;53.482;10.294;2023-02-28T03:37:13;0.25;;;0.17;;
63900;SDS011;50538;53.482;10.294;2023-02-28T03:47:25;0.35;;;0.17;;
63900;SDS011;50538;53.482;10.294;2023-02-28T03:57:40;0.10;;;0.10;;
63900;SDS011;50538;53.482;10.294;2023-02-28T04:07:50;0.57;;;0.20;;
63900;SDS011;50538;53.482;10.294;2023-02-28T04:17:51;1.13;;;0.32;;
63900;SDS011;50538;53.482;10.294;2023-02-28T04:27:51;0.32;;;0.05;;
63900;SDS011;50538;53.482;10.294;2023-02-28T04:37:52;2.75;;;0.65;;
63900;SDS011;50538;53.482;10.294;2023-02-28T04:47:52;0.13;;;0.13;;
63900;SDS011;50538;53.482;10.294;2023-02-28T04:57:56;0.30;;;0.20;;
63900;SDS011;50538;53.482;10.294;2023-02-28T05:07:56;3.90;;;1.15;;
63900;SDS011;50538;53.482;10.294;2023-02-28T05:17:57;3.28;;;0.40;;
63900;SDS011;50538;53.482;10.294;2023-02-28T05:27:57;0.88;;;0.68;;
63900;SDS011;50538;53.482;10.294;2023-02-28T05:37:57;1.13;;;0.25;;
63900;SDS011;50538;53.482;10.294;2023-02-28T05:47:58;0.57;;;0.22;;
63900;SDS011;50538;53.482;10.294;2023-02-28T05:57:58;0.13;;;0.08;;
63900;SDS011;50538;53.482;10.294;2023-02-28T06:07:59;1.25;;;0.50;;
63900;SDS011;50538;53.482;10.294;2023-02-28T06:17:59;0.32;;;0.32;;
63900;SDS011;50538;53.482;10.294;2023-02-28T06:28:00;0.32;;;0.30;;
63900;SDS011;50538;53.482;10.294;2023-02-28T06:38:00;2.97;;;0.82;;
63900;SDS011;50538;53.482;10.294;2023-02-28T06:48:01;2.53;;;0.68;;
63900;SDS011;50538;53.482;10.294;2023-02-28T06:58:01;0.40;;;0.40;;
63900;SDS011;50538;53.482;10.294;2023-02-28T07:08:02;0.75;;;0.47;;
63900;SDS011;50538;53.482;10.294;2023-02-28T07:18:03;0.40;;;0.40;;
63900;SDS011;50538;53.482;10.294;2023-02-28T07:28:04;2.15;;;1.13;;
63900;SDS011;50538;53.482;10.294;2023-02-28T07:38:05;0.63;;;0.60;;
63900;SDS011;50538;53.482;10.294;2023-02-28T07:48:07;2.72;;;0.50;;
63900;SDS011;50538;53.482;10.294;2023-02-28T07:58:09;1.38;;;0.52;;
63900;SDS011;50538;53.482;10.294;2023-02-28T08:08:10;1.58;;;0.95;;
63900;SDS011;50538;53.482;10.294;2023-02-28T08:18:10;1.67;;;1.10;;
63900;SDS011;50538;53.482;10.294;2023-02-28T08:28:10;7.72;;;1.30;;
63900;SDS011;50538;53.482;10.294;2023-02-28T08:38:11;3.97;;;1.65;;
63900;SDS011;50538;53.482;10.294;2023-02-28T08:48:11;3.20;;;1.30;;
63900;SDS011;50538;53.482;10.294;2023-02-28T08:58:13;2.70;;;1.73;;
63900;SDS011;50538;53.482;10.294;2023-02-28T09:08:14;3.78;;;1.65;;
63900;SDS011;50538;53.482;10.294;2023-02-28T09:18:14;2.10;;;1.27;;
63900;SDS011;50538;53.482;10.294;2023-02-28T09:28:15;2.83;;;1.23;;
63900;SDS011;50538;53.482;10.294;2023-02-28T09:38:17;2.13;;;0.90;;
63900;SDS011;50538;53.482;10.294;2023-02-28T09:48:20;0.73;;;0.60;;
63900;SDS011;50538;53.482;10.294;2023-02-28T09:58:37;1.65;;;0.45;;
63900;SDS011;50538;53.482;10.294;2023-02-28T10:08:56;0.50;;;0.43;;
63900;SDS011;50538;53.482;10.294;2023-02-28T10:19:12;0.43;;;0.43;;
63900;SDS011;50538;53.482;10.294;2023-02-28T10:29:27;0.53;;;0.23;;
63900;SDS011;50538;53.482;10.294;2023-02-28T10:39:36;0.87;;;0.23;;
63900;SDS011;50538;53.482;10.294;2023-02-28T10:49:38;0.80;;;0.38;;
63900;SDS011;50538;53.482;10.294;2023-02-28T10:59:50;0.82;;;0.40;;
63900;SDS011;50538;53.482;10.294;2023-02-28T11:09:55;0.63;;;0.32;;
63900;SDS011;50538;53.482;10.294;2023-02-28T11:20:04;1.38;;;0.80;;
63900;SDS011;50538;53.482;10.294;2023-02-28T11:51:34;1.08;;;0.60;;
63900;SDS011;50538;53.482;10.294;2023-02-28T12:01:51;1.33;;;0.43;;
63900;SDS011;50538;53.482;10.294;2023-02-28T12:12:21;1.35;;;0.60;;
63900;SDS011;50538;53.482;10.294;2023-02-28T12:33:25;1.55;;;0.65;;
63900;SDS011;50538;53.482;10.294;2023-02-28T12:43:38;2.15;;;0.93;;
63900;SDS011;50538;53.482;10.294;2023-02-28T13:26:18;2.45;;;0.82;;
63900;SDS011;50538;53.482;10.294;2023-02-28T13:36:23;1.15;;;0.60;;
63900;SDS011;50538;53.482;10.294;2023-02-28T13:46:38;0.70;;;0.30;;
63900;SDS011;50538;53.482;10.294;2023-02-28T14:40:25;1.63;;;0.70;;
63900;SDS011;50538;53.482;10.294;2023-02-28T14:50:42;0.45;;;0.40;;
63900;SDS011;50538;53.482;10.294;2023-02-28T15:00:59;1.85;;;0.82;;
63900;SDS011;50538;53.482;10.294;2023-02-28T15:11:02;1.42;;;0.65;;
63900;SDS011;50538;53.482;10.294;2023-02-28T15:21:07;0.93;;;0.63;;
63900;SDS011;50538;53.482;10.294;2023-02-28T15:31:21;2.20;;;0.55;;
63900;SDS011;50538;53.482;10.294;2023-02-28T15:41:30;1.40;;;0.68;;
63900;SDS011;50538;53.482;10.294;2023-02-28T15:51:37;1.98;;;1.00;;
63900;SDS011;50538;53.482;10.294;2023-02-28T16:01:44;2.28;;;1.00;;
63900;SDS011;50538;53.482;10.294;2023-02-28T16:11:48;2.47;;;0.70;;
63900;SDS011;50538;53.482;10.294;2023-02-28T16:21:52;1.70;;;0.98;;
63900;SDS011;50538;53.482;10.294;2023-02-28T16:31:53;4.45;;;1.20;;
63900;SDS011;50538;53.482;10.294;2023-02-28T16:42:15;0.77;;;0.27;;
63900;SDS011;50538;53.482;10.294;2023-02-28T16:52:24;1.23;;;0.50;;
63900;SDS011;50538;53.482;10.294;2023-02-28T17:02:25;1.13;;;0.57;;
63900;SDS011;50538;53.482;10.294;2023-02-28T17:12:25;1.60;;;0.40;;
63900;SDS011;50538;53.482;10.294;2023-02-28T17:22:27;0.65;;;0.40;;
63900;SDS011;50538;53.482;10.294;2023-02-28T17:32:27;2.85;;;0.95;;
63900;SDS011;50538;53.482;10.294;2023-02-28T17:42:28;1.55;;;0.75;;
63900;SDS011;50538;53.482;10.294;2023-02-28T17:52:28;2.08;;;0.60;;
63900;SDS011;50538;53.482;10.294;2023-02-28T18:02:29;0.90;;;0.70;;
63900;SDS011;50538;53.482;10.294;2023-02-28T18:12:35;1.27;;;0.65;;
63900;SDS011;50538;53.482;10.294;2023-02-28T18:22:35;2.63;;;0.40;;
63900;SDS011;50538;53.482;10.294;2023-02-28T18:32:36;1.75;;;0.77;;
63900;SDS011;50538;53.482;10.294;2023-02-28T18:42:37;2.00;;;0.60;;
63900;SDS011;50538;53.482;10.294;2023-02-28T18:52:38;4.60;;;1.13;;
63900;SDS011;50538;53.482;10.294;2023-02-28T19:02:39;2.10;;;0.93;;
63900;SDS011;50538;53.482;10.294;2023-02-28T19:12:39;2.63;;;1.15;;
63900;SDS011;50538;53.482;10.294;2023-02-28T19:22:41;3.55;;;1.10;;
63900;SDS011;50538;53.482;10.294;2023-02-28T19:32:43;4.10;;;1.45;;
63900;SDS011;50538;53.482;10.294;2023-02-28T19:42:43;4.63;;;1.20;;
63900;SDS011;50538;53.482;10.294;2023-02-28T19:52:44;7.95;;;1.75;;
63900;SDS011;50538;53.482;10.294;2023-02-28T20:02:44;2.88;;;1.65;;
63900;SDS011;50538;53.482;10.294;2023-02-28T20:12:44;3.20;;;1.85;;
63900;SDS011;50538;53.482;10.294;2023-02-28T20:22:45;2.88;;;1.95;;
63900;SDS011;50538;53.482;10.294;2023-02-28T20:32:46;3.10;;;1.38;;
63900;SDS011;50538;53.482;10.294;2023-02-28T20:42:46;2.97;;;1.43;;
63900;SDS011;50538;53.482;10.294;2023-02-28T20:52:47;1.83;;;1.10;;
63900;SDS011;50538;53.482;10.294;2023-02-28T21:02:47;1.67;;;1.05;;
63900;SDS011;50538;53.482;10.294;2023-02-28T21:12:48;1.83;;;1.15;;
63900;SDS011;50538;53.482;10.294;2023-02-28T21:22:49;2.30;;;1.15;;
63900;SDS011;50538;53.482;10.294;2023-02-28T21:32:51;3.38;;;1.05;;
63900;SDS011;50538;53.482;10.294;2023-02-28T21:42:52;3.20;;;1.60;;
63900;SDS011;50538;53.482;10.294;2023-02-28T21:52:52;11.90;;;2.10;;
63900;SDS011;50538;53.482;10.294;2023-02-28T22:02:52;2.10;;;1.20;;
63900;SDS011;50538;53.482;10.294;2023-02-28T22:12:53;4.05;;;1.70;;
63900;SDS011;50538;53.482;10.294;2023-02-28T22:22:53;1.42;;;0.98;;
63900;SDS011;50538;53.482;10.294;2023-02-28T22:32:54;4.07;;;1.27;;
63900;SDS011;50538;53.482;10.294;2023-02-28T22:42:54;3.35;;;1.27;;
63900;SDS011;50538;53.482;10.294;2023-02-28T22:52:54;2.15;;;1.17;;
63900;SDS011;50538;53.482;10.294;2023-02-28T23:02:55;2.92;;;1.50;;
63900;SDS011;50538;53.482;10.294;2023-02-28T23:12:55;2.17;;;1.20;;
63900;SDS011;50538;53.482;10.294;2023-02-28T23:22:55;1.95;;;1.08;;
63900;SDS011;50538;53.482;10.294;2023-02-28T23:32:56;1.70;;;1.33;;
63900;SDS011;50538;53.482;10.294;2023-02-28T23:42:56;1.50;;;0.77;;
63900;SDS011;50538;53.482;10.294;2023-02-28T23:52:57;1.27;;;0.70;;
